Terminal Aerodrome Forecast
Issued by NWS Flagstaff, AZ

Home | Current Version | Previous Version | Text Only | Print | Product List | Glossary On
Versions: 1 2 3 4 5 6 7 8 9 10 11 12 13 14 15 16
958
FTUS45 KFGZ 061720
TAFFLG
TAF
KFLG 061720Z 0618/0718 20015G33KT P6SM SCT040 SCT070
     FM061900 21018G30KT P6SM SCT030 BKN060
     FM070000 23008KT P6SM SCT030 BKN050
      TEMPO 0700/0704 4SM -SHRA BKN025
     FM070400 22010KT P6SM -SHRA BKN035
     FM071200 22005KT P6SM -SHSNRA BKN030=

USA.gov is the U.S. government's official web portal to all federal, state and local government web resources and services.